Time;durP1;ratioP1;P1;durP2;ratioP2;P2;SDS_P1;SDS_P2;PMS_P1;PMS_P2;Temp;Humidity;BMP_temperature;BMP_pressure;BME280_temperature;BME280_humidity;BME280_pressure;Samples;Min_cycle;Max_cycle;Signal;HPM_P1;HPM_P2
2022/04/14 00:01:55;;;;;;;10.30;6.70;;;13.80;99.90;;;;;;5112381;28;20495;-83
2022/04/14 00:04:24;;;;;;;11.77;7.70;;;13.80;99.90;;;;;;5111712;28;20452;-83
2022/04/14 00:06:52;;;;;;;11.90;8.30;;;13.80;99.90;;;;;;5113273;28;20468;-83
2022/04/14 00:09:20;;;;;;;11.20;7.40;;;13.70;99.90;;;;;;5113670;28;20512;-84
2022/04/14 00:11:48;;;;;;;9.90;6.70;;;13.70;99.90;;;;;;5115189;28;20437;-83
2022/04/14 00:14:17;;;;;;;9.17;6.77;;;13.70;99.90;;;;;;5114844;28;20448;-83
2022/04/14 00:16:46;;;;;;;10.33;6.77;;;13.70;99.90;;;;;;5109220;28;21018;-83
2022/04/14 00:19:15;;;;;;;12.07;8.37;;;13.60;99.90;;;;;;5106241;28;20459;-83
2022/04/14 00:21:43;;;;;;;13.23;7.17;;;13.60;99.90;;;;;;5102342;28;20525;-83
2022/04/14 00:24:12;;;;;;;9.97;6.80;;;13.60;99.90;;;;;;5104786;28;20471;-83
2022/04/14 00:26:40;;;;;;;9.20;6.43;;;13.60;99.90;;;;;;5102739;28;20513;-84
2022/04/14 00:29:08;;;;;;;10.27;7.00;;;13.60;99.90;;;;;;5102703;28;20482;-83
2022/04/14 00:31:36;;;;;;;11.23;7.00;;;13.60;99.90;;;;;;5102949;28;20445;-83
2022/04/14 00:34:06;;;;;;;10.60;6.90;;;13.50;99.90;;;;;;5101007;28;20450;-83
2022/04/14 00:36:34;;;;;;;11.60;6.57;;;13.50;99.90;;;;;;5101880;28;20464;-83
2022/04/14 00:39:02;;;;;;;12.63;5.90;;;13.50;99.90;;;;;;5106148;28;20535;-82
2022/04/14 00:41:30;;;;;;;9.10;6.00;;;13.50;99.90;;;;;;5098232;28;20467;-83
2022/04/14 00:43:59;;;;;;;9.00;5.63;;;13.40;99.90;;;;;;5098162;28;20535;-82
2022/04/14 00:46:27;;;;;;;9.23;6.00;;;13.40;99.90;;;;;;5098282;28;20894;-83
2022/04/14 00:48:56;;;;;;;9.10;6.20;;;13.40;99.90;;;;;;5099425;28;20444;-83
2022/04/14 00:51:25;;;;;;;9.20;5.90;;;13.40;99.90;;;;;;5097701;28;20441;-83
2022/04/14 00:53:54;;;;;;;8.83;6.20;;;13.40;99.90;;;;;;5097664;28;20440;-83
2022/04/14 00:56:24;;;;;;;9.60;5.77;;;13.30;99.90;;;;;;5098671;28;20480;-83
2022/04/14 00:58:52;;;;;;;7.90;5.40;;;13.40;99.90;;;;;;5098043;28;20459;-83
2022/04/14 01:01:20;;;;;;;11.30;6.20;;;13.30;99.90;;;;;;5098181;28;20471;-83
2022/04/14 01:03:51;;;;;;;9.07;6.57;;;13.30;99.90;;;;;;5096972;28;20467;-83
2022/04/14 01:06:21;;;;;;;10.13;6.43;;;13.30;99.90;;;;;;5097312;28;20893;-82
2022/04/14 01:11:35;;;;;;;9.30;6.20;;;13.30;99.90;;;;;;5096680;28;20945;-83
2022/04/14 01:14:03;;;;;;;8.90;5.77;;;13.20;99.90;;;;;;5096768;28;20443;-82
2022/04/14 01:16:31;;;;;;;11.07;5.97;;;13.20;99.90;;;;;;5096880;28;20495;-82
2022/04/14 01:19:00;;;;;;;10.07;6.40;;;13.20;99.90;;;;;;5096445;28;20869;-82
2022/04/14 01:21:33;;;;;;;9.90;6.60;;;13.20;99.90;;;;;;5096480;28;20883;-82
2022/04/14 01:24:07;;;;;;;9.90;6.40;;;13.20;99.90;;;;;;5098410;28;20440;-82
2022/04/14 01:26:37;;;;;;;9.40;6.20;;;13.10;99.90;;;;;;5097044;28;20555;-82
2022/04/14 01:29:05;;;;;;;9.40;6.77;;;13.10;99.90;;;;;;5096513;28;20523;-82
2022/04/14 01:31:34;;;;;;;10.13;6.80;;;13.10;99.90;;;;;;5096379;28;20450;-82
2022/04/14 01:34:02;;;;;;;10.30;6.70;;;13.10;99.90;;;;;;5096468;28;20878;-82
2022/04/14 01:36:30;;;;;;;9.43;6.20;;;13.10;99.90;;;;;;5096496;28;20504;-82
2022/04/14 01:38:58;;;;;;;9.53;6.27;;;13.00;99.90;;;;;;5098229;28;20443;-82
2022/04/14 01:41:28;;;;;;;8.80;6.80;;;13.00;99.90;;;;;;5102056;28;20464;-82
2022/04/14 01:43:56;;;;;;;11.63;6.43;;;13.00;99.90;;;;;;5101080;28;20440;-83
2022/04/14 01:46:25;;;;;;;10.93;6.60;;;13.00;99.90;;;;;;5100790;28;20491;-82
2022/04/14 01:48:54;;;;;;;9.33;6.40;;;12.90;99.90;;;;;;5101232;28;20483;-82
2022/04/14 01:51:22;;;;;;;10.50;6.43;;;12.90;99.90;;;;;;5100833;28;20930;-82
2022/04/14 01:53:50;;;;;;;10.60;7.23;;;12.90;99.90;;;;;;5110232;28;20448;-82
2022/04/14 01:56:18;;;;;;;11.70;6.97;;;12.90;99.90;;;;;;5110068;28;20478;-82
2022/04/14 01:58:48;;;;;;;12.77;7.00;;;12.90;99.90;;;;;;5109614;28;20440;-82
2022/04/14 02:01:16;;;;;;;10.30;6.90;;;12.90;99.90;;;;;;5110624;28;20491;-83
2022/04/14 02:03:45;;;;;;;10.80;7.20;;;12.80;99.90;;;;;;5110226;28;20451;-82
2022/04/14 02:06:13;;;;;;;12.17;7.60;;;12.80;99.90;;;;;;5109431;28;20479;-83
2022/04/14 02:08:42;;;;;;;10.23;6.77;;;12.80;99.90;;;;;;5107762;28;20493;-82
2022/04/14 02:11:11;;;;;;;10.40;6.80;;;12.80;99.90;;;;;;5100763;28;20494;-82
2022/04/14 02:13:39;;;;;;;10.43;7.63;;;12.80;99.90;;;;;;5101445;28;20502;-82
2022/04/14 02:16:09;;;;;;;9.83;6.80;;;12.80;99.90;;;;;;5101029;28;20471;-83
2022/04/14 02:18:38;;;;;;;10.30;6.73;;;12.80;99.90;;;;;;5100060;28;20464;-82
2022/04/14 02:21:06;;;;;;;12.33;7.33;;;12.80;99.90;;;;;;5100236;28;20509;-82
2022/04/14 02:23:34;;;;;;;11.43;7.50;;;12.70;99.90;;;;;;5099905;28;20479;-82
2022/04/14 02:26:05;;;;;;;9.13;7.23;;;12.70;99.90;;;;;;5100365;28;20468;-82
2022/04/14 02:28:34;;;;;;;12.00;7.47;;;12.70;99.90;;;;;;5100066;28;20455;-82
2022/04/14 02:31:02;;;;;;;10.77;7.23;;;12.70;99.90;;;;;;5100128;28;20444;-82
2022/04/14 02:33:34;;;;;;;11.13;7.70;;;12.70;99.90;;;;;;5100982;28;20435;-82
2022/04/14 02:36:02;;;;;;;10.57;7.40;;;12.70;99.90;;;;;;5099589;28;20908;-82
2022/04/14 02:38:30;;;;;;;10.80;8.73;;;12.60;99.90;;;;;;5099702;28;20963;-82
2022/04/14 02:40:59;;;;;;;12.97;8.50;;;12.60;99.90;;;;;;5099681;28;20446;-82
2022/04/14 02:43:27;;;;;;;10.30;7.50;;;12.60;99.90;;;;;;5099681;28;20498;-82
2022/04/14 02:45:55;;;;;;;10.10;7.97;;;12.60;99.90;;;;;;5099461;28;20818;-83
2022/04/14 02:48:23;;;;;;;10.80;8.80;;;12.50;99.90;;;;;;5099991;28;20545;-82
2022/04/14 02:50:53;;;;;;;12.47;9.30;;;12.50;99.90;;;;;;5099596;28;20479;-82
2022/04/14 02:53:21;;;;;;;13.20;9.10;;;12.50;99.90;;;;;;5099675;28;20480;-82
2022/04/14 02:55:49;;;;;;;12.50;8.90;;;12.50;99.90;;;;;;5098763;28;20949;-83
2022/04/14 02:58:17;;;;;;;14.33;10.60;;;12.50;99.90;;;;;;5100196;28;20440;-82
2022/04/14 03:00:45;;;;;;;11.30;8.97;;;12.50;99.90;;;;;;5103770;28;20470;-82
2022/04/14 03:03:14;;;;;;;14.63;9.47;;;12.50;99.90;;;;;;5103904;28;20468;-82
2022/04/14 03:05:42;;;;;;;11.87;9.90;;;12.50;99.90;;;;;;5100115;28;20502;-83
2022/04/14 03:08:11;;;;;;;14.10;10.90;;;12.40;99.90;;;;;;5099918;28;20445;-82
2022/04/14 03:10:40;;;;;;;12.43;10.40;;;12.40;99.90;;;;;;5100983;28;20539;-82
2022/04/14 03:13:08;;;;;;;13.23;10.40;;;12.40;99.90;;;;;;5099813;28;20445;-82
2022/04/14 03:15:37;;;;;;;14.33;10.10;;;12.40;99.90;;;;;;5100079;28;20444;-83
2022/04/14 03:18:05;;;;;;;14.30;10.40;;;12.40;99.90;;;;;;5099066;28;20473;-83
2022/04/14 03:20:34;;;;;;;13.80;11.43;;;12.40;99.90;;;;;;5100767;28;20493;-82
2022/04/14 03:23:02;;;;;;;16.27;13.27;;;12.40;99.90;;;;;;5099137;28;20468;-82
2022/04/14 03:25:33;;;;;;;15.40;12.30;;;12.30;99.90;;;;;;5100975;28;20470;-82
2022/04/14 03:28:01;;;;;;;16.20;13.13;;;12.30;99.90;;;;;;5101638;28;20472;-82
2022/04/14 03:30:30;;;;;;;21.60;18.97;;;12.30;99.90;;;;;;5101692;28;20444;-83
2022/04/14 03:32:58;;;;;;;21.40;17.60;;;12.30;99.90;;;;;;5099373;28;20448;-83
2022/04/14 03:35:27;;;;;;;18.40;16.37;;;12.20;99.90;;;;;;5100284;28;20476;-82
2022/04/14 03:37:55;;;;;;;16.17;13.07;;;12.20;99.90;;;;;;5099163;28;20479;-82
2022/04/14 03:40:24;;;;;;;14.43;12.57;;;12.20;99.90;;;;;;5099067;28;20493;-82
2022/04/14 03:42:53;;;;;;;16.77;12.27;;;12.20;99.90;;;;;;5100409;28;20468;-82
2022/04/14 03:45:22;;;;;;;15.80;11.63;;;12.20;99.90;;;;;;5100043;28;20440;-83
2022/04/14 03:47:51;;;;;;;14.40;11.93;;;12.10;99.90;;;;;;5098663;28;20569;-82
2022/04/14 03:50:19;;;;;;;14.20;12.70;;;12.10;99.90;;;;;;5099099;28;20455;-82
2022/04/14 03:52:47;;;;;;;17.10;13.70;;;12.10;99.90;;;;;;5098568;28;20444;-82
2022/04/14 03:55:16;;;;;;;16.80;13.57;;;12.10;99.90;;;;;;5100175;28;20437;-82
2022/04/14 03:57:44;;;;;;;16.60;14.33;;;12.10;99.90;;;;;;5098002;28;20480;-82
2022/04/14 04:00:14;;;;;;;16.20;13.97;;;12.00;99.90;;;;;;5097982;28;20475;-82
2022/04/14 04:02:42;;;;;;;16.30;14.17;;;12.00;99.90;;;;;;5097925;28;20494;-82
2022/04/14 04:05:11;;;;;;;16.23;12.10;;;12.00;99.90;;;;;;5102098;28;20854;-83
2022/04/14 04:07:39;;;;;;;15.80;14.20;;;12.00;99.90;;;;;;5098829;28;20529;-82
2022/04/14 04:10:08;;;;;;;15.80;14.10;;;12.00;99.90;;;;;;5100494;28;20471;-82
2022/04/14 04:12:36;;;;;;;17.83;15.43;;;12.00;99.90;;;;;;5098176;28;20818;-82
2022/04/14 04:15:06;;;;;;;16.27;14.60;;;12.00;99.90;;;;;;5098284;28;20468;-82
2022/04/14 04:17:35;;;;;;;17.67;13.97;;;11.90;99.90;;;;;;5099195;28;20543;-82
2022/04/14 04:20:04;;;;;;;17.67;15.17;;;11.90;99.90;;;;;;5098183;28;20448;-82
2022/04/14 04:22:33;;;;;;;18.13;16.07;;;11.90;99.90;;;;;;5097534;28;20461;-82
2022/04/14 04:25:03;;;;;;;18.30;16.10;;;11.90;99.90;;;;;;5097948;28;20448;-82
2022/04/14 04:27:31;;;;;;;23.90;16.20;;;11.90;99.90;;;;;;5097613;28;20478;-82
2022/04/14 04:30:00;;;;;;;18.60;16.67;;;11.90;99.90;;;;;;5097711;28;20877;-82
2022/04/14 04:32:28;;;;;;;21.77;17.73;;;11.80;99.90;;;;;;5097507;28;20448;-82
2022/04/14 04:34:57;;;;;;;18.37;16.37;;;11.80;99.90;;;;;;5097903;28;20452;-82
2022/04/14 04:37:26;;;;;;;19.50;17.40;;;11.80;99.90;;;;;;5097162;28;20471;-83
2022/04/14 04:39:54;;;;;;;18.70;16.67;;;11.80;99.90;;;;;;5097681;28;20535;-83
2022/04/14 04:42:22;;;;;;;19.27;17.10;;;11.90;99.90;;;;;;5097493;28;20456;-82
2022/04/14 04:44:50;;;;;;;19.40;16.37;;;11.80;99.90;;;;;;5098679;28;20433;-82
2022/04/14 04:47:20;;;;;;;21.10;18.20;;;11.80;99.90;;;;;;5097679;28;20471;-82
2022/04/14 04:49:48;;;;;;;19.83;17.07;;;11.80;99.90;;;;;;5096653;28;20945;-83
2022/04/14 04:52:18;;;;;;;21.53;18.53;;;11.80;99.90;;;;;;5097931;28;20460;-82
2022/04/14 04:54:46;;;;;;;19.03;17.00;;;11.70;99.90;;;;;;5097897;28;20493;-82
2022/04/14 04:57:14;;;;;;;20.17;17.47;;;11.70;99.90;;;;;;5096787;28;20480;-82
2022/04/14 04:59:42;;;;;;;20.50;17.93;;;11.70;99.90;;;;;;5096641;28;20450;-82
2022/04/14 05:02:10;;;;;;;20.50;18.33;;;11.70;99.90;;;;;;5097092;28;20452;-82
2022/04/14 05:04:38;;;;;;;22.90;19.77;;;11.70;99.90;;;;;;5101201;28;20503;-82
2022/04/14 05:07:07;;;;;;;19.37;17.37;;;11.70;99.90;;;;;;5098730;28;20460;-82
2022/04/14 05:09:36;;;;;;;20.03;17.80;;;11.70;99.90;;;;;;5097132;28;20479;-82
2022/04/14 05:12:07;;;;;;;21.27;18.50;;;11.70;99.90;;;;;;5097072;28;20444;-82
2022/04/14 05:14:35;;;;;;;21.50;19.13;;;11.70;99.90;;;;;;5096263;28;20440;-82
2022/04/14 05:17:06;;;;;;;20.47;18.27;;;11.70;99.90;;;;;;5097789;28;20468;-82
2022/04/14 05:19:34;;;;;;;23.37;20.07;;;11.70;99.90;;;;;;5096435;28;20448;-82
2022/04/14 05:22:03;;;;;;;20.63;18.53;;;11.70;99.90;;;;;;5096081;28;20525;-82
2022/04/14 05:24:31;;;;;;;21.93;19.33;;;11.70;99.90;;;;;;5096334;28;20471;-82
2022/04/14 05:27:01;;;;;;;22.20;19.03;;;11.70;99.90;;;;;;5096289;28;20984;-83
2022/04/14 05:29:30;;;;;;;20.87;18.23;;;11.70;99.90;;;;;;5097738;28;20594;-82
2022/04/14 05:31:59;;;;;;;22.20;19.87;;;11.70;99.90;;;;;;5096369;28;20455;-82
2022/04/14 05:34:27;;;;;;;21.90;19.27;;;11.70;99.90;;;;;;5096989;28;20440;-82
2022/04/14 05:36:55;;;;;;;25.03;20.97;;;11.70;99.90;;;;;;5096731;28;20464;-82
2022/04/14 05:39:23;;;;;;;21.40;19.20;;;11.70;99.90;;;;;;5096273;28;20488;-82
2022/04/14 05:41:52;;;;;;;21.53;19.23;;;11.80;99.90;;;;;;5096606;28;20448;-82
2022/04/14 05:44:21;;;;;;;21.50;18.43;;;11.80;99.90;;;;;;5097885;28;20475;-82
2022/04/14 05:46:50;;;;;;;25.03;19.10;;;11.80;99.90;;;;;;5095943;28;20464;-83
2022/04/14 05:49:18;;;;;;;21.00;18.80;;;11.80;99.90;;;;;;5096394;28;20483;-82
2022/04/14 05:51:46;;;;;;;20.87;17.53;;;11.80;99.90;;;;;;5096327;28;20454;-82
2022/04/14 05:54:15;;;;;;;22.63;19.00;;;11.90;99.90;;;;;;5096328;28;20965;-82
2022/04/14 05:56:43;;;;;;;23.43;18.90;;;11.90;99.90;;;;;;5097411;28;20455;-82
2022/04/14 05:59:16;;;;;;;20.63;18.43;;;11.90;99.90;;;;;;5097723;28;20462;-82
2022/04/14 06:01:47;;;;;;;22.73;19.07;;;11.90;99.90;;;;;;5097515;28;20512;-83
2022/04/14 06:04:15;;;;;;;21.27;19.07;;;11.90;99.90;;;;;;5096240;28;20474;-83
2022/04/14 06:06:44;;;;;;;21.23;19.00;;;11.90;99.90;;;;;;5098033;28;20882;-82
2022/04/14 06:09:12;;;;;;;25.17;20.70;;;12.00;99.90;;;;;;5097455;28;20925;-82
2022/04/14 06:11:41;;;;;;;24.37;21.77;;;12.00;99.90;;;;;;5097823;28;20815;-82
2022/04/14 06:14:11;;;;;;;23.73;20.57;;;12.00;99.90;;;;;;5096109;28;20459;-82
2022/04/14 06:16:40;;;;;;;22.73;20.20;;;12.10;99.90;;;;;;5098265;28;20498;-82
2022/04/14 06:19:10;;;;;;;23.07;20.67;;;12.00;99.90;;;;;;5096643;28;20451;-82
2022/04/14 06:21:38;;;;;;;23.60;19.77;;;12.10;99.90;;;;;;5096383;28;20456;-82
2022/04/14 06:24:07;;;;;;;23.50;21.00;;;12.10;99.90;;;;;;5097198;28;20575;-83
2022/04/14 06:26:35;;;;;;;22.57;19.63;;;12.10;99.90;;;;;;5099375;28;20488;-82
2022/04/14 06:29:04;;;;;;;24.90;22.20;;;12.10;99.90;;;;;;5100059;28;20451;-82
2022/04/14 06:31:32;;;;;;;25.33;21.33;;;12.20;99.90;;;;;;5100196;28;20448;-82
2022/04/14 06:34:02;;;;;;;26.90;22.93;;;12.20;99.90;;;;;;5101440;28;20436;-82
2022/04/14 06:36:31;;;;;;;23.43;20.90;;;12.20;99.90;;;;;;5100304;28;20464;-82
2022/04/14 06:39:01;;;;;;;27.50;22.97;;;12.30;99.90;;;;;;5101592;28;20448;-82
2022/04/14 06:41:29;;;;;;;27.97;23.40;;;12.40;99.90;;;;;;5104504;28;20440;-83
2022/04/14 06:43:57;;;;;;;26.00;23.20;;;12.40;99.90;;;;;;5104886;28;20475;-82
2022/04/14 06:46:27;;;;;;;26.67;23.77;;;12.50;99.90;;;;;;5100474;28;20558;-82
2022/04/14 06:48:57;;;;;;;26.73;23.47;;;12.60;99.90;;;;;;5100270;28;20476;-82
2022/04/14 06:51:25;;;;;;;29.20;26.07;;;12.70;99.90;;;;;;5100429;28;20468;-83
2022/04/14 06:53:55;;;;;;;26.67;22.90;;;12.90;99.90;;;;;;5099784;28;20448;-82
2022/04/14 06:56:23;;;;;;;27.50;24.50;;;13.00;99.90;;;;;;5099366;28;20479;-82
2022/04/14 06:58:51;;;;;;;28.77;24.30;;;13.10;99.90;;;;;;5099228;28;20452;-83
2022/04/14 07:01:19;;;;;;;28.57;25.60;;;13.20;99.90;;;;;;5099930;28;20505;-82
2022/04/14 07:03:47;;;;;;;29.70;24.87;;;13.40;99.90;;;;;;5099266;28;20544;-82
2022/04/14 07:06:16;;;;;;;30.63;26.30;;;13.60;99.90;;;;;;5099055;28;20468;-82
2022/04/14 07:08:44;;;;;;;30.70;26.47;;;13.70;99.90;;;;;;5098866;28;20444;-82
2022/04/14 07:11:14;;;;;;;31.47;27.60;;;13.80;99.90;;;;;;5100719;28;20463;-82
2022/04/14 07:13:42;;;;;;;29.73;26.50;;;13.80;99.90;;;;;;5100361;28;20467;-81
2022/04/14 07:16:10;;;;;;;28.73;25.73;;;13.90;99.90;;;;;;5098638;28;20501;-82
2022/04/14 07:18:39;;;;;;;32.30;27.53;;;14.00;99.90;;;;;;5098932;28;20492;-82
2022/04/14 07:21:07;;;;;;;30.13;26.70;;;14.00;99.90;;;;;;5098039;28;20856;-82
2022/04/14 07:23:36;;;;;;;29.67;26.57;;;14.10;99.90;;;;;;5099233;28;20448;-82
2022/04/14 07:26:04;;;;;;;31.87;27.10;;;14.10;99.90;;;;;;5099132;28;20987;-82
2022/04/14 07:28:33;;;;;;;32.77;27.57;;;14.10;99.90;;;;;;5098187;28;20452;-82
2022/04/14 07:31:02;;;;;;;30.27;27.20;;;14.10;99.90;;;;;;5098131;28;20445;-81
2022/04/14 07:33:30;;;;;;;31.20;27.20;;;14.00;99.90;;;;;;5102091;28;20452;-82
2022/04/14 07:35:58;;;;;;;30.10;26.90;;;14.10;99.90;;;;;;5101019;28;20464;-80
2022/04/14 07:38:43;;;;;;;32.80;28.13;;;14.10;99.90;;;;;;5098878;28;20944;-81
2022/04/14 07:41:12;;;;;;;29.97;26.67;;;14.10;99.90;;;;;;5098957;28;20448;-82
2022/04/14 07:43:41;;;;;;;34.87;28.83;;;14.10;99.90;;;;;;5098059;28;20448;-82
2022/04/14 07:46:10;;;;;;;30.80;26.40;;;14.20;99.90;;;;;;5098208;28;20996;-81
2022/04/14 07:48:38;;;;;;;31.33;27.93;;;14.20;99.90;;;;;;5099490;28;20945;-82
2022/04/14 07:51:08;;;;;;;34.97;29.30;;;14.20;99.90;;;;;;5097802;28;20426;-81
2022/04/14 07:53:37;;;;;;;32.20;28.70;;;14.20;99.90;;;;;;5097850;28;20964;-81
2022/04/14 07:56:05;;;;;;;31.97;28.67;;;14.20;99.90;;;;;;5098879;28;20456;-81
2022/04/14 07:58:34;;;;;;;31.83;28.30;;;14.20;99.90;;;;;;5097444;28;20448;-81
2022/04/14 08:01:03;;;;;;;32.07;28.63;;;14.20;99.90;;;;;;5098267;28;20547;-82
2022/04/14 08:03:35;;;;;;;30.70;27.50;;;14.20;99.90;;;;;;5099106;28;20433;-82
2022/04/14 08:06:04;;;;;;;33.70;28.63;;;14.20;99.90;;;;;;5097381;28;20486;-81
2022/04/14 08:08:32;;;;;;;31.40;28.00;;;14.20;99.90;;;;;;5097094;28;20444;-81
2022/04/14 08:11:03;;;;;;;31.97;28.60;;;14.20;99.90;;;;;;5097200;28;20456;-82
2022/04/14 08:13:36;;;;;;;32.07;27.67;;;14.20;99.90;;;;;;5098235;28;20424;-82
2022/04/14 08:16:07;;;;;;;34.13;30.07;;;14.20;99.90;;;;;;5097073;28;20563;-82
2022/04/14 08:18:36;;;;;;;33.20;29.87;;;14.20;99.90;;;;;;5098136;28;20423;-82
2022/04/14 08:21:04;;;;;;;34.57;30.37;;;14.20;99.90;;;;;;5097392;28;20479;-82
2022/04/14 08:23:38;;;;;;;34.73;30.40;;;14.30;99.90;;;;;;5097291;28;20452;-82
2022/04/14 08:26:11;;;;;;;35.20;30.63;;;14.40;99.90;;;;;;5096984;28;20475;-82
2022/04/14 08:28:47;;;;;;;34.40;30.63;;;14.50;99.90;;;;;;5096852;28;20521;-82
2022/04/14 08:31:17;;;;;;;33.33;28.93;;;14.80;99.90;;;;;;5097227;28;20482;-82
2022/04/14 08:33:46;;;;;;;32.47;28.97;;;15.10;99.90;;;;;;5098067;28;20420;-82
2022/04/14 08:36:16;;;;;;;32.27;28.20;;;15.30;99.90;;;;;;5096352;28;20757;-82
2022/04/14 08:38:45;;;;;;;34.20;28.07;;;15.50;99.90;;;;;;5096070;28;20483;-81
2022/04/14 08:41:17;;;;;;;33.17;28.40;;;15.70;99.90;;;;;;5096176;28;20949;-82
2022/04/14 08:43:49;;;;;;;30.47;27.20;;;15.90;99.90;;;;;;5096139;28;20440;-82
2022/04/14 08:46:20;;;;;;;31.77;28.50;;;16.10;99.90;;;;;;5096071;28;20472;-82
2022/04/14 08:48:51;;;;;;;30.87;27.27;;;16.20;99.90;;;;;;5095849;28;20971;-81
2022/04/14 08:51:21;;;;;;;28.67;25.70;;;16.30;99.90;;;;;;5095430;28;20554;-79
2022/04/14 08:53:50;;;;;;;29.77;26.60;;;16.40;99.90;;;;;;5096905;28;20406;-80
2022/04/14 08:56:23;;;;;;;28.50;25.63;;;16.40;99.90;;;;;;5095367;28;20472;-80
2022/04/14 08:58:55;;;;;;;28.17;25.10;;;16.50;99.90;;;;;;5095328;28;20419;-80
2022/04/14 09:01:27;;;;;;;27.40;24.70;;;16.70;99.90;;;;;;5096978;28;20395;-80
2022/04/14 09:03:57;;;;;;;26.13;23.43;;;16.80;99.90;;;;;;5096276;28;20977;-80
2022/04/14 09:06:29;;;;;;;30.53;25.93;;;17.00;99.90;;;;;;5097617;28;20809;-80
2022/04/14 09:08:59;;;;;;;28.90;24.30;;;17.10;99.90;;;;;;5096985;28;20427;-80
2022/04/14 09:11:28;;;;;;;28.93;23.60;;;17.20;99.90;;;;;;5096096;28;20431;-80
2022/04/14 09:13:59;;;;;;;24.27;21.63;;;17.30;99.90;;;;;;5096367;28;20448;-80
2022/04/14 09:16:30;;;;;;;23.23;20.50;;;17.50;99.90;;;;;;5096441;28;20464;-80
2022/04/14 09:19:02;;;;;;;24.03;21.60;;;17.60;99.90;;;;;;5096760;28;20514;-80
2022/04/14 09:21:30;;;;;;;23.60;21.27;;;17.70;99.90;;;;;;5105078;28;20906;-82
2022/04/14 09:23:58;;;;;;;27.27;21.20;;;17.80;99.90;;;;;;5100791;28;20970;-82
2022/04/14 09:26:27;;;;;;;22.40;20.00;;;17.80;99.90;;;;;;5099364;28;21016;-81
2022/04/14 09:29:07;;;;;;;23.40;19.47;;;17.90;99.90;;;;;;5099015;28;20418;-82
2022/04/14 09:31:54;;;;;;;21.90;19.17;;;18.00;99.90;;;;;;5101073;28;20425;-82
2022/04/14 09:34:45;;;;;;;23.20;20.90;;;18.00;99.90;;;;;;5101054;28;20446;-80
2022/04/14 09:37:14;;;;;;;21.07;18.50;;;18.10;99.90;;;;;;5102415;28;21026;-80
2022/04/14 09:40:00;;;;;;;23.10;20.70;;;18.10;99.90;;;;;;5099699;28;20818;-80
2022/04/14 09:42:29;;;;;;;22.80;19.40;;;18.20;99.90;;;;;;5097377;28;20423;-80
2022/04/14 09:45:17;;;;;;;20.03;17.90;;;18.30;99.90;;;;;;5099028;28;20527;-80
2022/04/14 09:48:07;;;;;;;20.77;17.20;;;18.40;99.90;;;;;;5098834;28;20472;-80
2022/04/14 09:50:39;;;;;;;20.97;18.40;;;18.50;99.90;;;;;;5102112;28;20427;-81
2022/04/14 09:53:11;;;;;;;21.20;18.90;;;18.60;99.90;;;;;;5100969;28;20489;-81
2022/04/14 09:55:41;;;;;;;18.17;16.37;;;18.60;99.90;;;;;;5100749;28;20411;-81
2022/04/14 09:58:15;;;;;;;17.60;15.70;;;18.60;99.90;;;;;;5103372;28;20436;-79
2022/04/14 10:00:44;;;;;;;19.40;17.40;;;18.60;99.90;;;;;;5105936;28;20434;-79
2022/04/14 10:03:16;;;;;;;21.10;16.50;;;18.50;99.90;;;;;;5105989;28;20455;-79
2022/04/14 10:05:46;;;;;;;18.93;16.73;;;18.50;99.90;;;;;;5106353;28;20496;-79
2022/04/14 10:08:15;;;;;;;17.83;16.03;;;18.50;99.90;;;;;;5105992;28;20440;-79
2022/04/14 10:10:45;;;;;;;18.50;16.50;;;18.40;99.90;;;;;;5104976;28;20994;-79
2022/04/14 10:13:14;;;;;;;18.93;15.93;;;18.40;99.90;;;;;;5113753;28;20515;-79
2022/04/14 10:15:44;;;;;;;17.10;15.30;;;18.40;99.90;;;;;;5116488;28;20411;-80
2022/04/14 10:18:16;;;;;;;16.13;14.40;;;18.50;99.90;;;;;;5109990;28;20461;-79
2022/04/14 10:20:45;;;;;;;16.20;14.50;;;18.50;99.90;;;;;;5108881;28;20428;-79
2022/04/14 10:23:15;;;;;;;17.77;15.97;;;18.60;99.90;;;;;;5105773;28;20448;-81
2022/04/14 10:25:43;;;;;;;16.33;14.63;;;18.60;99.90;;;;;;5105815;28;20559;-80
2022/04/14 10:28:14;;;;;;;17.60;15.70;;;18.60;99.90;;;;;;5109555;28;20451;-80
2022/04/14 10:30:46;;;;;;;16.47;14.77;;;18.60;99.90;;;;;;5107031;28;20965;-81
2022/04/14 10:33:22;;;;;;;18.00;15.93;;;18.70;99.90;;;;;;5107840;28;20424;-81
2022/04/14 10:35:50;;;;;;;16.50;14.77;;;18.80;99.90;;;;;;5106003;28;20441;-81
2022/04/14 10:38:23;;;;;;;16.27;14.67;;;18.90;99.90;;;;;;5103155;28;20924;-78
2022/04/14 10:40:57;;;;;;;16.43;14.80;;;19.00;99.90;;;;;;5100325;28;20439;-79
2022/04/14 10:43:27;;;;;;;15.80;14.17;;;19.10;99.90;;;;;;5098442;28;20497;-79
2022/04/14 10:45:58;;;;;;;18.30;14.07;;;19.20;99.90;;;;;;5098338;28;20466;-79
2022/04/14 10:48:30;;;;;;;16.03;14.20;;;19.30;99.90;;;;;;5099267;28;20973;-79
2022/04/14 10:51:24;;;;;;;16.63;14.73;;;19.40;99.90;;;;;;5104676;28;20459;-80
2022/04/14 10:53:57;;;;;;;16.50;14.80;;;19.50;99.90;;;;;;5107167;28;20844;-79
2022/04/14 10:56:59;;;;;;;15.90;14.30;;;19.50;99.90;;;;;;5110953;28;20491;-79
2022/04/14 10:59:44;;;;;;;15.00;13.50;;;19.60;99.90;;;;;;5031399;28;20450;-80
2022/04/14 11:02:12;;;;;;;16.43;13.70;;;19.60;99.90;;;;;;5030676;28;20474;-80
2022/04/14 11:04:53;;;;;;;16.00;14.30;;;19.60;99.90;;;;;;5074834;28;20957;-80
2022/04/14 11:07:22;;;;;;;15.00;13.50;;;19.60;99.90;;;;;;5108550;28;21012;-80
2022/04/14 11:09:57;;;;;;;14.63;12.30;;;19.60;99.90;;;;;;5110008;28;20459;-79
2022/04/14 11:12:27;;;;;;;13.43;12.03;;;19.60;99.90;;;;;;5107652;28;20593;-80
2022/04/14 11:14:57;;;;;;;14.50;12.97;;;19.60;99.90;;;;;;5108133;28;20985;-80
2022/04/14 11:18:03;;;;;;;14.90;13.40;;;19.70;99.90;;;;;;5109128;28;20505;-78
2022/04/14 11:20:56;;;;;;;13.30;11.90;;;19.80;99.90;;;;;;5104864;28;20516;-78
2022/04/14 11:23:28;;;;;;;15.43;12.40;;;19.70;99.90;;;;;;5105390;28;20470;-79
2022/04/14 11:26:11;;;;;;;13.83;12.43;;;19.60;99.90;;;;;;5105240;28;20452;-79
2022/04/14 11:28:43;;;;;;;13.10;11.70;;;19.50;99.90;;;;;;5105945;28;20432;-79
2022/04/14 11:31:33;;;;;;;13.57;12.13;;;19.40;99.90;;;;;;5108278;28;20440;-80
2022/04/14 11:34:05;;;;;;;14.80;13.20;;;19.30;99.90;;;;;;5101360;28;20523;-78
2022/04/14 11:36:46;;;;;;;13.00;11.60;;;19.20;99.90;;;;;;5106954;28;21016;-79
2022/04/14 11:39:22;;;;;;;13.13;11.60;;;19.10;99.90;;;;;;5101960;28;20947;-78
2022/04/14 11:41:53;;;;;;;12.90;10.57;;;19.00;99.90;;;;;;5108407;28;20425;-79
2022/04/14 11:44:22;;;;;;;14.00;11.00;;;18.90;99.90;;;;;;5108014;28;20496;-80
2022/04/14 11:46:52;;;;;;;12.67;10.00;;;18.90;99.90;;;;;;5109223;28;20538;-80
2022/04/14 11:49:22;;;;;;;11.63;10.10;;;18.70;99.90;;;;;;5105071;28;20432;-79
2022/04/14 11:51:54;;;;;;;12.07;10.80;;;18.70;99.90;;;;;;5105711;28;20515;-78
2022/04/14 11:54:33;;;;;;;12.93;11.00;;;18.60;99.90;;;;;;5106187;28;20436;-79
2022/04/14 11:57:10;;;;;;;14.70;12.30;;;18.50;99.90;;;;;;5106475;28;20498;-79
2022/04/14 11:59:41;;;;;;;13.40;12.00;;;18.50;99.90;;;;;;5106950;28;20440;-79
2022/04/14 12:02:11;;;;;;;13.40;11.50;;;18.40;99.90;;;;;;5106797;28;20440;-79
2022/04/14 12:04:41;;;;;;;13.30;10.90;;;18.40;99.90;;;;;;5105962;28;20436;-79
2022/04/14 12:07:11;;;;;;;14.00;11.70;;;18.40;99.90;;;;;;5107969;28;20472;-79
2022/04/14 12:09:40;;;;;;;13.13;11.60;;;18.40;99.90;;;;;;5105717;28;20432;-79
2022/04/14 12:12:10;;;;;;;13.60;11.10;;;18.50;99.90;;;;;;5108578;28;20535;-79
2022/04/14 12:14:41;;;;;;;12.73;10.80;;;18.60;99.90;;;;;;5105630;28;20444;-79
2022/04/14 12:17:10;;;;;;;11.17;7.93;;;18.70;99.90;;;;;;5107291;28;20449;-80
2022/04/14 12:19:43;;;;;;;9.80;7.10;;;18.70;99.90;;;;;;5107502;28;20433;-80
2022/04/14 12:22:13;;;;;;;9.30;6.87;;;18.70;99.90;;;;;;5105178;28;20454;-80
2022/04/14 12:24:48;;;;;;;9.53;7.53;;;18.70;99.90;;;;;;5106267;28;20958;-79
2022/04/14 12:27:19;;;;;;;9.90;7.50;;;18.70;99.90;;;;;;5110168;28;20478;-80
2022/04/14 12:29:47;;;;;;;11.27;8.10;;;18.70;99.90;;;;;;5106843;28;20472;-80
2022/04/14 12:32:16;;;;;;;10.70;8.20;;;18.70;99.90;;;;;;5108325;28;20494;-80
2022/04/14 12:34:45;;;;;;;10.80;8.07;;;18.70;99.90;;;;;;5110327;28;20452;-80
2022/04/14 12:37:18;;;;;;;11.20;8.20;;;18.80;99.90;;;;;;5108979;28;20472;-79
2022/04/14 12:40:00;;;;;;;10.80;7.87;;;18.80;99.90;;;;;;5107887;28;20454;-79
2022/04/14 12:42:32;;;;;;;13.20;8.43;;;18.80;99.90;;;;;;5106112;28;20436;-80
2022/04/14 12:45:06;;;;;;;10.37;7.90;;;18.90;99.90;;;;;;5108088;28;20460;-80
2022/04/14 12:47:35;;;;;;;10.10;8.00;;;18.90;99.90;;;;;;5109801;28;20472;-79
2022/04/14 12:50:05;;;;;;;9.60;7.67;;;18.80;99.90;;;;;;5108106;28;20937;-79